sensor_id;sensor_type;location;lat;lon;timestamp;P1;durP1;ratioP1;P2;durP2;ratioP2
12770;SDS011;6449;47.666;9.160;2022-10-16T00:01:14;3.13;;;2.83;;
12770;SDS011;6449;47.666;9.160;2022-10-16T00:06:13;3.70;;;2.47;;
12770;SDS011;6449;47.666;9.160;2022-10-16T00:11:09;5.22;;;2.60;;
12770;SDS011;6449;47.666;9.160;2022-10-16T00:16:06;3.30;;;2.67;;
12770;SDS011;6449;47.666;9.160;2022-10-16T00:21:04;4.90;;;2.97;;
12770;SDS011;6449;47.666;9.160;2022-10-16T00:26:02;3.92;;;2.97;;
12770;SDS011;6449;47.666;9.160;2022-10-16T00:30:58;2.90;;;2.70;;
12770;SDS011;6449;47.666;9.160;2022-10-16T00:35:53;2.50;;;2.30;;
12770;SDS011;6449;47.666;9.160;2022-10-16T00:40:46;4.80;;;2.83;;
12770;SDS011;6449;47.666;9.160;2022-10-16T00:45:39;5.43;;;2.80;;
12770;SDS011;6449;47.666;9.160;2022-10-16T00:50:33;2.92;;;2.70;;
12770;SDS011;6449;47.666;9.160;2022-10-16T00:55:28;3.80;;;2.60;;
12770;SDS011;6449;47.666;9.160;2022-10-16T01:00:23;7.60;;;2.85;;
12770;SDS011;6449;47.666;9.160;2022-10-16T01:05:19;3.95;;;2.63;;
12770;SDS011;6449;47.666;9.160;2022-10-16T01:10:17;2.50;;;2.30;;
12770;SDS011;6449;47.666;9.160;2022-10-16T01:15:26;2.47;;;2.25;;
12770;SDS011;6449;47.666;9.160;2022-10-16T01:20:26;3.72;;;2.53;;
12770;SDS011;6449;47.666;9.160;2022-10-16T01:25:27;6.28;;;2.47;;
12770;SDS011;6449;47.666;9.160;2022-10-16T01:30:40;1.92;;;1.80;;
12770;SDS011;6449;47.666;9.160;2022-10-16T01:35:37;4.68;;;2.00;;
12770;SDS011;6449;47.666;9.160;2022-10-16T01:40:36;3.92;;;2.47;;
12770;SDS011;6449;47.666;9.160;2022-10-16T01:45:36;3.20;;;2.03;;
12770;SDS011;6449;47.666;9.160;2022-10-16T01:50:32;2.50;;;2.30;;
12770;SDS011;6449;47.666;9.160;2022-10-16T01:55:31;3.90;;;2.40;;
12770;SDS011;6449;47.666;9.160;2022-10-16T02:00:30;5.22;;;3.80;;
12770;SDS011;6449;47.666;9.160;2022-10-16T02:05:25;3.58;;;2.90;;
12770;SDS011;6449;47.666;9.160;2022-10-16T02:10:24;6.03;;;3.88;;
12770;SDS011;6449;47.666;9.160;2022-10-16T02:15:22;5.97;;;3.88;;
12770;SDS011;6449;47.666;9.160;2022-10-16T02:20:16;3.72;;;3.40;;
12770;SDS011;6449;47.666;9.160;2022-10-16T02:25:13;7.45;;;3.55;;
12770;SDS011;6449;47.666;9.160;2022-10-16T02:30:19;4.05;;;3.33;;
12770;SDS011;6449;47.666;9.160;2022-10-16T02:35:18;3.90;;;3.45;;
12770;SDS011;6449;47.666;9.160;2022-10-16T02:40:14;2.97;;;2.78;;
12770;SDS011;6449;47.666;9.160;2022-10-16T02:45:14;3.38;;;2.90;;
12770;SDS011;6449;47.666;9.160;2022-10-16T02:50:09;6.85;;;3.00;;
12770;SDS011;6449;47.666;9.160;2022-10-16T02:55:03;3.22;;;2.70;;
12770;SDS011;6449;47.666;9.160;2022-10-16T02:59:57;3.92;;;2.38;;
12770;SDS011;6449;47.666;9.160;2022-10-16T03:04:50;4.10;;;2.50;;
12770;SDS011;6449;47.666;9.160;2022-10-16T03:09:45;6.72;;;3.00;;
12770;SDS011;6449;47.666;9.160;2022-10-16T03:14:38;5.93;;;2.72;;
12770;SDS011;6449;47.666;9.160;2022-10-16T03:19:32;8.63;;;3.58;;
12770;SDS011;6449;47.666;9.160;2022-10-16T03:24:26;8.80;;;3.83;;
12770;SDS011;6449;47.666;9.160;2022-10-16T03:29:20;7.18;;;4.75;;
12770;SDS011;6449;47.666;9.160;2022-10-16T03:34:13;10.43;;;5.40;;
12770;SDS011;6449;47.666;9.160;2022-10-16T03:39:07;12.18;;;4.40;;
12770;SDS011;6449;47.666;9.160;2022-10-16T03:44:00;5.72;;;4.20;;
12770;SDS011;6449;47.666;9.160;2022-10-16T03:48:55;9.35;;;4.05;;
12770;SDS011;6449;47.666;9.160;2022-10-16T03:53:48;4.55;;;3.90;;
12770;SDS011;6449;47.666;9.160;2022-10-16T03:58:41;4.55;;;3.83;;
12770;SDS011;6449;47.666;9.160;2022-10-16T04:03:35;3.75;;;3.42;;
12770;SDS011;6449;47.666;9.160;2022-10-16T04:08:29;5.43;;;3.95;;
12770;SDS011;6449;47.666;9.160;2022-10-16T04:13:25;4.72;;;4.32;;
12770;SDS011;6449;47.666;9.160;2022-10-16T04:18:18;5.60;;;4.72;;
12770;SDS011;6449;47.666;9.160;2022-10-16T04:23:12;7.07;;;5.47;;
12770;SDS011;6449;47.666;9.160;2022-10-16T04:28:06;8.60;;;6.15;;
12770;SDS011;6449;47.666;9.160;2022-10-16T04:32:59;8.23;;;5.82;;
12770;SDS011;6449;47.666;9.160;2022-10-16T04:37:53;7.05;;;5.30;;
12770;SDS011;6449;47.666;9.160;2022-10-16T04:42:46;7.18;;;5.47;;
12770;SDS011;6449;47.666;9.160;2022-10-16T04:47:41;8.13;;;6.15;;
12770;SDS011;6449;47.666;9.160;2022-10-16T04:52:34;6.93;;;5.82;;
12770;SDS011;6449;47.666;9.160;2022-10-16T04:57:27;6.65;;;5.88;;
12770;SDS011;6449;47.666;9.160;2022-10-16T05:02:21;8.10;;;6.40;;
12770;SDS011;6449;47.666;9.160;2022-10-16T05:07:16;8.82;;;6.68;;
12770;SDS011;6449;47.666;9.160;2022-10-16T05:12:09;6.55;;;4.90;;
12770;SDS011;6449;47.666;9.160;2022-10-16T05:17:03;7.25;;;6.07;;
12770;SDS011;6449;47.666;9.160;2022-10-16T05:21:56;7.25;;;4.97;;
12770;SDS011;6449;47.666;9.160;2022-10-16T05:26:50;5.75;;;5.15;;
12770;SDS011;6449;47.666;9.160;2022-10-16T05:31:44;8.50;;;7.00;;
12770;SDS011;6449;47.666;9.160;2022-10-16T05:36:37;7.38;;;6.15;;
12770;SDS011;6449;47.666;9.160;2022-10-16T05:41:31;13.90;;;6.60;;
12770;SDS011;6449;47.666;9.160;2022-10-16T05:46:25;13.50;;;6.57;;
12770;SDS011;6449;47.666;9.160;2022-10-16T05:51:19;22.27;;;6.55;;
12770;SDS011;6449;47.666;9.160;2022-10-16T05:56:12;8.00;;;6.60;;
12770;SDS011;6449;47.666;9.160;2022-10-16T06:01:06;10.60;;;6.20;;
12770;SDS011;6449;47.666;9.160;2022-10-16T06:06:11;7.22;;;6.00;;
12770;SDS011;6449;47.666;9.160;2022-10-16T06:11:07;5.95;;;5.20;;
12770;SDS011;6449;47.666;9.160;2022-10-16T06:16:03;11.73;;;6.68;;
12770;SDS011;6449;47.666;9.160;2022-10-16T06:20:58;8.05;;;7.20;;
12770;SDS011;6449;47.666;9.160;2022-10-16T06:25:52;8.70;;;7.75;;
12770;SDS011;6449;47.666;9.160;2022-10-16T06:30:46;14.50;;;7.22;;
12770;SDS011;6449;47.666;9.160;2022-10-16T06:35:39;8.25;;;6.05;;
12770;SDS011;6449;47.666;9.160;2022-10-16T06:40:33;8.68;;;7.78;;
12770;SDS011;6449;47.666;9.160;2022-10-16T06:45:27;11.35;;;7.35;;
12770;SDS011;6449;47.666;9.160;2022-10-16T06:50:20;9.65;;;8.57;;
12770;SDS011;6449;47.666;9.160;2022-10-16T06:55:14;11.35;;;7.50;;
12770;SDS011;6449;47.666;9.160;2022-10-16T07:00:08;9.73;;;6.10;;
12770;SDS011;6449;47.666;9.160;2022-10-16T07:05:04;6.05;;;5.45;;
12770;SDS011;6449;47.666;9.160;2022-10-16T07:09:58;8.18;;;6.00;;
12770;SDS011;6449;47.666;9.160;2022-10-16T07:14:51;10.20;;;6.60;;
12770;SDS011;6449;47.666;9.160;2022-10-16T07:19:45;7.18;;;6.47;;
12770;SDS011;6449;47.666;9.160;2022-10-16T07:24:40;6.90;;;6.20;;
12770;SDS011;6449;47.666;9.160;2022-10-16T07:29:38;6.60;;;5.65;;
12770;SDS011;6449;47.666;9.160;2022-10-16T07:34:31;9.85;;;6.95;;
12770;SDS011;6449;47.666;9.160;2022-10-16T07:39:25;5.65;;;5.13;;
12770;SDS011;6449;47.666;9.160;2022-10-16T07:44:19;6.40;;;5.65;;
12770;SDS011;6449;47.666;9.160;2022-10-16T07:49:13;8.70;;;5.57;;
12770;SDS011;6449;47.666;9.160;2022-10-16T07:54:07;7.93;;;6.78;;
12770;SDS011;6449;47.666;9.160;2022-10-16T07:59:01;8.10;;;6.53;;
12770;SDS011;6449;47.666;9.160;2022-10-16T08:03:55;6.15;;;5.55;;
12770;SDS011;6449;47.666;9.160;2022-10-16T08:08:49;6.90;;;5.70;;
12770;SDS011;6449;47.666;9.160;2022-10-16T08:13:42;8.00;;;4.93;;
12770;SDS011;6449;47.666;9.160;2022-10-16T08:18:36;6.18;;;5.05;;
12770;SDS011;6449;47.666;9.160;2022-10-16T08:23:32;6.15;;;5.55;;
12770;SDS011;6449;47.666;9.160;2022-10-16T08:28:26;7.22;;;5.50;;
12770;SDS011;6449;47.666;9.160;2022-10-16T08:33:20;8.20;;;6.65;;
12770;SDS011;6449;47.666;9.160;2022-10-16T08:38:13;9.45;;;7.00;;
12770;SDS011;6449;47.666;9.160;2022-10-16T08:43:19;7.60;;;5.80;;
12770;SDS011;6449;47.666;9.160;2022-10-16T08:48:29;9.52;;;6.50;;
12770;SDS011;6449;47.666;9.160;2022-10-16T08:53:36;8.18;;;5.65;;
12770;SDS011;6449;47.666;9.160;2022-10-16T08:58:38;5.78;;;5.18;;
12770;SDS011;6449;47.666;9.160;2022-10-16T09:03:39;6.70;;;5.10;;
12770;SDS011;6449;47.666;9.160;2022-10-16T09:09:06;7.25;;;6.55;;
12770;SDS011;6449;47.666;9.160;2022-10-16T09:14:28;9.25;;;6.75;;
12770;SDS011;6449;47.666;9.160;2022-10-16T09:19:41;6.88;;;5.78;;
12770;SDS011;6449;47.666;9.160;2022-10-16T09:24:42;7.28;;;6.13;;
12770;SDS011;6449;47.666;9.160;2022-10-16T09:29:37;7.75;;;6.95;;
12770;SDS011;6449;47.666;9.160;2022-10-16T09:34:30;6.93;;;6.20;;
12770;SDS011;6449;47.666;9.160;2022-10-16T09:39:28;8.40;;;7.50;;
12770;SDS011;6449;47.666;9.160;2022-10-16T09:44:22;10.80;;;6.43;;
12770;SDS011;6449;47.666;9.160;2022-10-16T09:49:22;7.78;;;6.13;;
12770;SDS011;6449;47.666;9.160;2022-10-16T09:54:17;8.50;;;6.50;;
12770;SDS011;6449;47.666;9.160;2022-10-16T09:59:13;8.38;;;5.93;;
12770;SDS011;6449;47.666;9.160;2022-10-16T10:04:09;6.18;;;5.63;;
12770;SDS011;6449;47.666;9.160;2022-10-16T10:09:06;7.10;;;5.28;;
12770;SDS011;6449;47.666;9.160;2022-10-16T10:14:14;5.35;;;4.72;;
12770;SDS011;6449;47.666;9.160;2022-10-16T10:19:14;5.13;;;4.63;;
12770;SDS011;6449;47.666;9.160;2022-10-16T10:24:12;6.30;;;4.65;;
12770;SDS011;6449;47.666;9.160;2022-10-16T10:29:08;5.53;;;4.25;;
12770;SDS011;6449;47.666;9.160;2022-10-16T10:34:17;5.65;;;5.05;;
12770;SDS011;6449;47.666;9.160;2022-10-16T10:39:27;4.88;;;4.38;;
12770;SDS011;6449;47.666;9.160;2022-10-16T10:44:41;5.35;;;4.03;;
12770;SDS011;6449;47.666;9.160;2022-10-16T10:50:06;4.00;;;3.60;;
12770;SDS011;6449;47.666;9.160;2022-10-16T10:55:16;4.70;;;3.40;;
12770;SDS011;6449;47.666;9.160;2022-10-16T11:00:19;4.25;;;3.53;;
12770;SDS011;6449;47.666;9.160;2022-10-16T11:05:24;3.97;;;3.20;;
12770;SDS011;6449;47.666;9.160;2022-10-16T11:10:36;2.85;;;2.53;;
12770;SDS011;6449;47.666;9.160;2022-10-16T11:15:40;3.28;;;2.00;;
12770;SDS011;6449;47.666;9.160;2022-10-16T11:20:37;1.77;;;1.60;;
12770;SDS011;6449;47.666;9.160;2022-10-16T11:25:39;3.17;;;1.75;;
12770;SDS011;6449;47.666;9.160;2022-10-16T11:30:39;2.85;;;1.70;;
12770;SDS011;6449;47.666;9.160;2022-10-16T11:35:40;4.40;;;2.53;;
12770;SDS011;6449;47.666;9.160;2022-10-16T11:40:41;2.58;;;1.70;;
12770;SDS011;6449;47.666;9.160;2022-10-16T11:45:42;4.45;;;1.65;;
12770;SDS011;6449;47.666;9.160;2022-10-16T11:50:42;1.90;;;1.40;;
12770;SDS011;6449;47.666;9.160;2022-10-16T11:55:44;2.50;;;1.40;;
12770;SDS011;6449;47.666;9.160;2022-10-16T12:00:39;1.42;;;1.30;;
12770;SDS011;6449;47.666;9.160;2022-10-16T12:05:46;1.08;;;1.00;;
12770;SDS011;6449;47.666;9.160;2022-10-16T12:11:03;0.90;;;0.90;;
12770;SDS011;6449;47.666;9.160;2022-10-16T12:16:17;1.60;;;1.50;;
12770;SDS011;6449;47.666;9.160;2022-10-16T12:21:16;1.45;;;1.30;;
12770;SDS011;6449;47.666;9.160;2022-10-16T12:26:12;1.40;;;1.30;;
12770;SDS011;6449;47.666;9.160;2022-10-16T12:31:06;1.40;;;1.30;;
12770;SDS011;6449;47.666;9.160;2022-10-16T12:36:04;1.40;;;1.30;;
12770;SDS011;6449;47.666;9.160;2022-10-16T12:41:07;1.73;;;1.35;;
12770;SDS011;6449;47.666;9.160;2022-10-16T12:46:04;1.77;;;1.25;;
12770;SDS011;6449;47.666;9.160;2022-10-16T12:51:22;2.00;;;1.80;;
12770;SDS011;6449;47.666;9.160;2022-10-16T12:56:19;2.72;;;1.60;;
12770;SDS011;6449;47.666;9.160;2022-10-16T13:01:25;1.50;;;1.40;;
12770;SDS011;6449;47.666;9.160;2022-10-16T13:06:34;1.77;;;1.40;;
12770;SDS011;6449;47.666;9.160;2022-10-16T13:11:43;2.17;;;1.55;;
12770;SDS011;6449;47.666;9.160;2022-10-16T13:17:11;1.50;;;1.40;;
12770;SDS011;6449;47.666;9.160;2022-10-16T13:22:20;2.05;;;1.30;;
12770;SDS011;6449;47.666;9.160;2022-10-16T13:27:23;1.92;;;1.48;;
12770;SDS011;6449;47.666;9.160;2022-10-16T13:32:30;1.50;;;1.40;;
12770;SDS011;6449;47.666;9.160;2022-10-16T13:37:24;1.67;;;1.58;;
12770;SDS011;6449;47.666;9.160;2022-10-16T13:42:21;1.38;;;1.27;;
12770;SDS011;6449;47.666;9.160;2022-10-16T13:47:19;1.45;;;1.35;;
12770;SDS011;6449;47.666;9.160;2022-10-16T13:52:18;2.65;;;1.77;;
12770;SDS011;6449;47.666;9.160;2022-10-16T13:57:13;3.95;;;2.10;;
12770;SDS011;6449;47.666;9.160;2022-10-16T14:02:25;2.72;;;1.67;;
12770;SDS011;6449;47.666;9.160;2022-10-16T14:07:28;5.55;;;2.00;;
12770;SDS011;6449;47.666;9.160;2022-10-16T14:17:29;2.03;;;1.88;;
12770;SDS011;6449;47.666;9.160;2022-10-16T14:22:30;2.58;;;2.15;;
12770;SDS011;6449;47.666;9.160;2022-10-16T14:27:31;1.88;;;1.77;;
12770;SDS011;6449;47.666;9.160;2022-10-16T14:32:27;1.80;;;1.70;;
12770;SDS011;6449;47.666;9.160;2022-10-16T14:37:22;2.13;;;1.80;;
12770;SDS011;6449;47.666;9.160;2022-10-16T14:42:21;2.20;;;1.85;;
12770;SDS011;6449;47.666;9.160;2022-10-16T14:47:17;2.10;;;1.90;;
12770;SDS011;6449;47.666;9.160;2022-10-16T14:52:16;1.88;;;1.73;;
12770;SDS011;6449;47.666;9.160;2022-10-16T14:57:16;2.10;;;1.58;;
12770;SDS011;6449;47.666;9.160;2022-10-16T15:02:16;1.98;;;1.77;;
12770;SDS011;6449;47.666;9.160;2022-10-16T15:07:15;1.88;;;1.70;;
12770;SDS011;6449;47.666;9.160;2022-10-16T15:12:08;2.83;;;2.00;;
12770;SDS011;6449;47.666;9.160;2022-10-16T15:17:02;4.55;;;1.83;;
12770;SDS011;6449;47.666;9.160;2022-10-16T15:21:57;2.58;;;1.90;;
12770;SDS011;6449;47.666;9.160;2022-10-16T15:26:50;2.35;;;1.88;;
12770;SDS011;6449;47.666;9.160;2022-10-16T15:31:43;1.83;;;1.50;;
12770;SDS011;6449;47.666;9.160;2022-10-16T15:36:38;1.80;;;1.70;;
12770;SDS011;6449;47.666;9.160;2022-10-16T15:41:34;3.05;;;2.50;;
12770;SDS011;6449;47.666;9.160;2022-10-16T15:46:27;4.32;;;2.90;;
12770;SDS011;6449;47.666;9.160;2022-10-16T15:51:22;3.45;;;3.00;;
12770;SDS011;6449;47.666;9.160;2022-10-16T15:56:15;2.45;;;2.25;;
12770;SDS011;6449;47.666;9.160;2022-10-16T16:01:11;2.05;;;1.88;;
12770;SDS011;6449;47.666;9.160;2022-10-16T16:06:04;2.53;;;2.13;;
12770;SDS011;6449;47.666;9.160;2022-10-16T16:11:00;2.03;;;1.83;;
12770;SDS011;6449;47.666;9.160;2022-10-16T16:15:57;1.90;;;1.80;;
12770;SDS011;6449;47.666;9.160;2022-10-16T16:20:52;2.00;;;1.77;;
12770;SDS011;6449;47.666;9.160;2022-10-16T16:25:53;3.88;;;1.63;;
12770;SDS011;6449;47.666;9.160;2022-10-16T16:31:01;1.80;;;1.70;;
12770;SDS011;6449;47.666;9.160;2022-10-16T16:35:58;2.55;;;1.70;;
12770;SDS011;6449;47.666;9.160;2022-10-16T16:40:53;1.63;;;1.52;;
12770;SDS011;6449;47.666;9.160;2022-10-16T16:45:47;2.20;;;2.00;;
12770;SDS011;6449;47.666;9.160;2022-10-16T16:50:41;2.97;;;1.80;;
12770;SDS011;6449;47.666;9.160;2022-10-16T16:55:35;1.95;;;1.75;;
12770;SDS011;6449;47.666;9.160;2022-10-16T17:00:29;2.28;;;1.45;;
12770;SDS011;6449;47.666;9.160;2022-10-16T17:05:23;1.98;;;1.75;;
12770;SDS011;6449;47.666;9.160;2022-10-16T17:10:17;3.40;;;1.60;;
12770;SDS011;6449;47.666;9.160;2022-10-16T17:15:12;1.90;;;1.80;;
12770;SDS011;6449;47.666;9.160;2022-10-16T17:20:05;3.35;;;2.70;;
12770;SDS011;6449;47.666;9.160;2022-10-16T17:25:01;2.22;;;1.90;;
12770;SDS011;6449;47.666;9.160;2022-10-16T17:29:55;3.38;;;1.80;;
12770;SDS011;6449;47.666;9.160;2022-10-16T17:34:49;2.80;;;2.28;;
12770;SDS011;6449;47.666;9.160;2022-10-16T17:39:43;2.70;;;2.50;;
12770;SDS011;6449;47.666;9.160;2022-10-16T17:44:36;6.85;;;4.28;;
12770;SDS011;6449;47.666;9.160;2022-10-16T17:49:30;9.35;;;6.28;;
12770;SDS011;6449;47.666;9.160;2022-10-16T17:54:24;8.35;;;6.25;;
12770;SDS011;6449;47.666;9.160;2022-10-16T17:59:18;7.63;;;5.47;;
12770;SDS011;6449;47.666;9.160;2022-10-16T18:04:14;6.63;;;4.57;;
12770;SDS011;6449;47.666;9.160;2022-10-16T18:09:09;4.93;;;3.97;;
12770;SDS011;6449;47.666;9.160;2022-10-16T18:14:07;4.57;;;3.30;;
12770;SDS011;6449;47.666;9.160;2022-10-16T18:19:04;4.28;;;2.50;;
12770;SDS011;6449;47.666;9.160;2022-10-16T18:23:58;3.40;;;2.10;;
12770;SDS011;6449;47.666;9.160;2022-10-16T18:28:51;1.95;;;1.75;;
12770;SDS011;6449;47.666;9.160;2022-10-16T18:33:48;5.40;;;1.95;;
12770;SDS011;6449;47.666;9.160;2022-10-16T18:38:42;3.15;;;2.20;;
12770;SDS011;6449;47.666;9.160;2022-10-16T18:43:37;1.80;;;1.70;;
12770;SDS011;6449;47.666;9.160;2022-10-16T18:48:31;2.38;;;2.00;;
12770;SDS011;6449;47.666;9.160;2022-10-16T18:53:26;5.43;;;1.75;;
12770;SDS011;6449;47.666;9.160;2022-10-16T18:58:24;2.13;;;1.92;;
12770;SDS011;6449;47.666;9.160;2022-10-16T19:03:17;2.45;;;1.85;;
12770;SDS011;6449;47.666;9.160;2022-10-16T19:08:11;4.15;;;2.08;;
12770;SDS011;6449;47.666;9.160;2022-10-16T19:13:07;4.22;;;2.33;;
12770;SDS011;6449;47.666;9.160;2022-10-16T19:18:01;4.00;;;2.38;;
12770;SDS011;6449;47.666;9.160;2022-10-16T19:22:54;2.80;;;2.03;;
12770;SDS011;6449;47.666;9.160;2022-10-16T19:27:49;2.60;;;1.85;;
12770;SDS011;6449;47.666;9.160;2022-10-16T19:32:44;3.03;;;2.00;;
12770;SDS011;6449;47.666;9.160;2022-10-16T19:42:34;3.78;;;1.90;;
12770;SDS011;6449;47.666;9.160;2022-10-16T19:47:33;1.98;;;1.70;;
12770;SDS011;6449;47.666;9.160;2022-10-16T19:52:28;7.45;;;3.75;;
12770;SDS011;6449;47.666;9.160;2022-10-16T19:57:21;8.15;;;4.68;;
12770;SDS011;6449;47.666;9.160;2022-10-16T20:02:15;7.28;;;5.22;;
12770;SDS011;6449;47.666;9.160;2022-10-16T20:07:08;11.48;;;10.18;;
12770;SDS011;6449;47.666;9.160;2022-10-16T20:12:03;8.27;;;7.20;;
12770;SDS011;6449;47.666;9.160;2022-10-16T20:16:57;9.50;;;7.55;;
12770;SDS011;6449;47.666;9.160;2022-10-16T20:21:50;7.22;;;5.95;;
12770;SDS011;6449;47.666;9.160;2022-10-16T20:26:43;9.18;;;8.23;;
12770;SDS011;6449;47.666;9.160;2022-10-16T20:31:38;7.65;;;5.03;;
12770;SDS011;6449;47.666;9.160;2022-10-16T20:36:33;3.83;;;3.35;;
12770;SDS011;6449;47.666;9.160;2022-10-16T20:41:27;7.78;;;2.50;;
12770;SDS011;6449;47.666;9.160;2022-10-16T20:46:21;3.97;;;2.42;;
12770;SDS011;6449;47.666;9.160;2022-10-16T20:51:19;2.53;;;2.28;;
12770;SDS011;6449;47.666;9.160;2022-10-16T20:56:15;7.05;;;2.50;;
12770;SDS011;6449;47.666;9.160;2022-10-16T21:01:11;4.68;;;2.90;;
12770;SDS011;6449;47.666;9.160;2022-10-16T21:06:07;5.85;;;2.55;;
12770;SDS011;6449;47.666;9.160;2022-10-16T21:16:31;3.13;;;2.38;;
12770;SDS011;6449;47.666;9.160;2022-10-16T21:21:26;3.05;;;2.30;;
12770;SDS011;6449;47.666;9.160;2022-10-16T21:26:22;2.92;;;2.50;;
12770;SDS011;6449;47.666;9.160;2022-10-16T21:31:17;6.18;;;2.70;;
12770;SDS011;6449;47.666;9.160;2022-10-16T21:36:14;3.13;;;2.83;;
12770;SDS011;6449;47.666;9.160;2022-10-16T21:41:13;2.72;;;2.30;;
12770;SDS011;6449;47.666;9.160;2022-10-16T21:46:09;3.22;;;2.20;;
12770;SDS011;6449;47.666;9.160;2022-10-16T21:51:03;3.10;;;2.13;;
12770;SDS011;6449;47.666;9.160;2022-10-16T21:55:58;5.00;;;2.38;;
12770;SDS011;6449;47.666;9.160;2022-10-16T22:00:51;4.60;;;2.38;;
12770;SDS011;6449;47.666;9.160;2022-10-16T22:11:02;2.58;;;2.08;;
12770;SDS011;6449;47.666;9.160;2022-10-16T22:15:56;3.20;;;2.20;;
12770;SDS011;6449;47.666;9.160;2022-10-16T22:20:49;1.95;;;1.75;;
12770;SDS011;6449;47.666;9.160;2022-10-16T22:25:43;4.05;;;2.15;;
12770;SDS011;6449;47.666;9.160;2022-10-16T22:30:38;3.38;;;2.05;;
12770;SDS011;6449;47.666;9.160;2022-10-16T22:35:34;3.10;;;2.00;;
12770;SDS011;6449;47.666;9.160;2022-10-16T22:40:28;2.20;;;2.00;;
12770;SDS011;6449;47.666;9.160;2022-10-16T22:45:24;2.80;;;1.90;;
12770;SDS011;6449;47.666;9.160;2022-10-16T22:50:19;1.90;;;1.80;;
12770;SDS011;6449;47.666;9.160;2022-10-16T23:00:24;2.90;;;2.22;;
12770;SDS011;6449;47.666;9.160;2022-10-16T23:05:18;1.60;;;1.50;;
12770;SDS011;6449;47.666;9.160;2022-10-16T23:10:12;3.42;;;2.10;;
12770;SDS011;6449;47.666;9.160;2022-10-16T23:15:05;2.45;;;2.00;;
12770;SDS011;6449;47.666;9.160;2022-10-16T23:19:59;3.08;;;1.70;;
12770;SDS011;6449;47.666;9.160;2022-10-16T23:24:54;3.63;;;2.08;;
12770;SDS011;6449;47.666;9.160;2022-10-16T23:29:47;2.95;;;2.10;;
12770;SDS011;6449;47.666;9.160;2022-10-16T23:34:41;1.70;;;1.60;;
12770;SDS011;6449;47.666;9.160;2022-10-16T23:39:37;1.92;;;1.83;;
12770;SDS011;6449;47.666;9.160;2022-10-16T23:44:31;5.90;;;2.20;;
12770;SDS011;6449;47.666;9.160;2022-10-16T23:49:25;5.25;;;3.10;;
12770;SDS011;6449;47.666;9.160;2022-10-16T23:54:18;5.40;;;2.83;;
12770;SDS011;6449;47.666;9.160;2022-10-16T23:59:12;3.33;;;2.38;;
